createdAt,value
2024-02-26T00:00:28.148Z,7.27
2024-02-26T00:03:15.495Z,7.26
2024-02-26T00:05:43.445Z,7.25
2024-02-26T00:08:11.021Z,7.22
2024-02-26T00:10:39.361Z,7.22
2024-02-26T00:13:07.416Z,7.21
2024-02-26T00:15:36.537Z,7.22
2024-02-26T00:18:04.151Z,7.21
2024-02-26T00:20:31.552Z,7.20
2024-02-26T00:22:58.712Z,7.18
2024-02-26T00:25:25.941Z,7.20
2024-02-26T00:27:53.270Z,7.18
2024-02-26T00:30:20.862Z,7.17
2024-02-26T00:32:48.287Z,7.18
2024-02-26T00:35:16.849Z,7.21
2024-02-26T00:37:45.260Z,7.21
2024-02-26T00:40:13.989Z,7.19
2024-02-26T00:42:46.747Z,7.16
2024-02-26T00:45:14.435Z,7.11
2024-02-26T00:47:42.846Z,7.06
2024-02-26T00:50:11.525Z,7.00
2024-02-26T00:52:38.906Z,6.93
2024-02-26T00:55:07.940Z,6.86
2024-02-26T00:57:35.258Z,6.77
2024-02-26T01:00:02.625Z,6.70
2024-02-26T01:02:30.523Z,6.64
2024-02-26T01:04:57.843Z,6.60
2024-02-26T01:07:25.241Z,6.54
2024-02-26T01:09:52.753Z,6.50
2024-02-26T01:12:20.215Z,6.46
2024-02-26T01:14:47.406Z,6.43
2024-02-26T01:17:14.591Z,6.38
2024-02-26T01:19:42.403Z,6.36
2024-02-26T01:22:09.928Z,6.32
2024-02-26T01:24:37.285Z,6.30
2024-02-26T01:27:04.741Z,6.27
2024-02-26T01:29:32.132Z,6.25
2024-02-26T01:31:59.291Z,6.24
2024-02-26T01:34:26.762Z,6.21
2024-02-26T01:36:54.165Z,6.21
2024-02-26T01:39:21.399Z,6.20
2024-02-26T01:41:48.710Z,6.19
2024-02-26T01:44:17.057Z,6.17
2024-02-26T01:46:44.385Z,6.14
2024-02-26T01:49:14.341Z,6.12
2024-02-26T01:51:43.978Z,6.09
2024-02-26T01:54:12.265Z,6.04
2024-02-26T01:56:41.434Z,6.01
2024-02-26T01:59:10.883Z,5.98
2024-02-26T02:01:38.982Z,5.95
2024-02-26T02:04:06.658Z,5.94
2024-02-26T02:06:34.266Z,5.91
2024-02-26T02:09:07.529Z,5.89
2024-02-26T02:11:35.107Z,5.86
2024-02-26T02:14:02.281Z,5.84
2024-02-26T02:16:29.603Z,5.82
2024-02-26T05:27:34.004Z,5.14
2024-02-26T05:30:01.513Z,5.11
2024-02-26T05:32:28.625Z,5.14
2024-02-26T05:34:55.583Z,5.17
2024-02-26T05:37:22.497Z,5.19
2024-02-26T05:39:49.651Z,5.22
2024-02-26T05:42:16.666Z,5.25
2024-02-26T05:44:43.742Z,5.28
2024-02-26T05:47:10.903Z,5.31
2024-02-26T05:49:37.921Z,5.34
2024-02-26T05:52:05.007Z,5.35
2024-02-26T05:54:32.006Z,5.40
2024-02-26T05:56:59.428Z,5.44
2024-02-26T05:59:26.434Z,5.51
2024-02-26T06:01:53.432Z,5.60
2024-02-26T06:04:20.408Z,5.74
2024-02-26T06:06:47.901Z,5.85
2024-02-26T06:09:14.987Z,5.92
2024-02-26T06:11:42.220Z,5.99
2024-02-26T06:14:09.814Z,6.05
2024-02-26T06:16:37.132Z,6.10
2024-02-26T06:19:08.124Z,6.17
2024-02-26T06:21:36.160Z,6.23
2024-02-26T06:24:03.298Z,6.29
2024-02-26T06:26:30.450Z,6.36
2024-02-26T06:28:57.809Z,6.41
2024-02-26T06:31:25.340Z,6.48
2024-02-26T06:33:53.084Z,6.56
2024-02-26T06:36:20.697Z,6.64
2024-02-26T06:38:47.720Z,6.75
2024-02-26T06:41:14.660Z,6.83
2024-02-26T06:43:42.030Z,6.91
2024-02-26T06:46:09.586Z,7.04
2024-02-26T06:48:38.407Z,7.35
2024-02-26T06:51:06.310Z,7.75
2024-02-26T06:53:33.493Z,8.21
2024-02-26T06:56:00.478Z,8.81
2024-02-26T06:58:27.585Z,9.37
2024-02-26T07:00:54.987Z,10.30
2024-02-26T07:03:24.181Z,11.26
2024-02-26T07:05:51.809Z,12.16
2024-02-26T07:08:18.849Z,13.25
2024-02-26T07:10:45.864Z,14.29
2024-02-26T07:13:13.230Z,15.32
2024-02-26T07:15:40.399Z,16.33
2024-02-26T07:18:08.401Z,17.28
2024-02-26T07:20:35.969Z,18.26
2024-02-26T07:23:04.142Z,19.34
2024-02-26T07:25:31.263Z,20.22
2024-02-26T07:27:58.461Z,20.83
2024-02-26T07:30:26.120Z,21.31
2024-02-26T07:32:53.560Z,21.59
2024-02-26T07:35:21.057Z,21.85
2024-02-26T07:37:49.887Z,21.72
2024-02-26T07:40:17.935Z,20.96
2024-02-26T07:42:44.980Z,20.50
2024-02-26T07:45:16.843Z,20.20
2024-02-26T07:47:44.866Z,20.03
2024-02-26T07:50:14.180Z,19.26
2024-02-26T07:52:41.695Z,18.31
2024-02-26T07:55:10.657Z,17.55
2024-02-26T07:57:38.270Z,17.41
2024-02-26T08:00:09.110Z,17.87
2024-02-26T08:02:36.352Z,18.46
2024-02-26T08:05:03.760Z,18.84
2024-02-26T08:07:31.809Z,19.10
2024-02-26T08:09:59.086Z,19.24
2024-02-26T08:12:26.091Z,19.28
2024-02-26T08:14:53.146Z,19.32
2024-02-26T08:17:20.658Z,19.56
2024-02-26T08:19:47.743Z,19.86
2024-02-26T08:22:17.422Z,20.32
2024-02-26T08:24:44.473Z,20.90
2024-02-26T08:27:11.506Z,21.44
2024-02-26T08:29:38.942Z,22.03
2024-02-26T08:32:08.382Z,22.41
2024-02-26T08:34:35.754Z,22.55
2024-02-26T08:37:02.796Z,22.48
2024-02-26T08:39:29.823Z,22.50
2024-02-26T08:41:56.866Z,22.52
2024-02-26T08:44:23.831Z,22.54
2024-02-26T08:46:52.159Z,22.62
2024-02-26T08:49:19.087Z,22.57
2024-02-26T08:51:46.981Z,22.42
2024-02-26T08:54:14.067Z,22.15
2024-02-26T08:56:41.453Z,21.81
2024-02-26T08:59:08.462Z,21.56
2024-02-26T09:01:36.437Z,21.39
2024-02-26T09:04:03.485Z,21.27
2024-02-26T09:06:30.990Z,21.18
2024-02-26T09:09:01.542Z,21.37
2024-02-26T09:11:29.866Z,21.65
2024-02-26T09:13:57.305Z,21.89
2024-02-26T09:16:24.665Z,22.11
2024-02-26T09:18:52.086Z,22.37
2024-02-26T09:21:24.618Z,22.34
2024-02-26T09:23:52.213Z,22.02
2024-02-26T09:26:19.466Z,21.73
2024-02-26T09:28:47.593Z,21.42
2024-02-26T09:31:17.112Z,21.25
2024-02-26T09:33:44.265Z,21.05
2024-02-26T09:36:12.365Z,20.76
2024-02-26T09:38:49.571Z,20.58
2024-02-26T09:41:23.579Z,20.29
2024-02-26T09:43:56.262Z,20.05
2024-02-26T09:46:23.348Z,19.91
2024-02-26T09:48:51.200Z,19.97
2024-02-26T09:51:18.998Z,20.11
2024-02-26T09:53:49.660Z,20.27
2024-02-26T09:56:17.195Z,20.36
2024-02-26T09:58:46.931Z,20.07
2024-02-26T10:01:18.692Z,19.90
2024-02-26T10:03:46.259Z,20.01
2024-02-26T10:06:13.732Z,19.88
2024-02-26T10:08:42.024Z,19.40
2024-02-26T10:11:10.746Z,18.81
2024-02-26T10:13:39.287Z,18.88
2024-02-26T10:16:07.657Z,18.91
2024-02-26T10:21:38.687Z,18.41
2024-02-26T10:24:06.187Z,18.58
2024-02-26T10:26:33.968Z,18.51
2024-02-26T10:29:03.902Z,18.34
2024-02-26T10:31:31.212Z,17.74
2024-02-26T10:34:05.629Z,17.07
2024-02-26T10:36:43.991Z,16.51
2024-02-26T10:39:17.216Z,16.20
2024-02-26T10:41:46.479Z,15.84
2024-02-26T10:44:18.187Z,15.46
2024-02-26T10:46:48.625Z,15.11
2024-02-26T10:49:21.550Z,14.81
2024-02-26T10:51:56.795Z,14.70
2024-02-26T10:54:26.090Z,14.49
2024-02-26T10:56:53.765Z,14.17
2024-02-26T10:59:22.526Z,13.85
2024-02-26T11:01:50.819Z,13.58
2024-02-26T11:04:19.509Z,13.30
2024-02-26T11:06:47.272Z,13.04
2024-02-26T11:09:15.488Z,12.82
2024-02-26T11:11:42.658Z,12.66
2024-02-26T11:14:11.382Z,12.48
2024-02-26T11:16:40.176Z,12.23
2024-02-26T11:19:08.731Z,12.07
2024-02-26T11:21:42.607Z,11.93
2024-02-26T11:24:14.171Z,11.85
2024-02-26T11:26:51.602Z,11.80
2024-02-26T11:29:23.675Z,11.66
2024-02-26T11:31:51.142Z,11.54
2024-02-26T11:34:19.318Z,11.56
2024-02-26T11:36:46.758Z,11.76
2024-02-26T11:39:18.100Z,11.87
2024-02-26T11:41:45.604Z,11.91
2024-02-26T11:44:12.749Z,11.94
2024-02-26T11:46:45.623Z,12.08
2024-02-26T11:49:35.851Z,12.12
2024-02-26T11:52:08.242Z,12.20
2024-02-26T11:54:48.149Z,12.41
2024-02-26T11:57:29.311Z,12.74
2024-02-26T11:59:56.943Z,13.12
2024-02-26T12:02:46.509Z,13.41
2024-02-26T12:05:19.320Z,13.75
2024-02-26T12:07:48.982Z,13.95
2024-02-26T12:10:29.452Z,14.11
2024-02-26T12:13:00.592Z,14.29
2024-02-26T12:15:32.220Z,14.46
2024-02-26T12:18:00.607Z,14.64
2024-02-26T12:20:27.675Z,14.71
2024-02-26T12:22:56.984Z,14.73
2024-02-26T12:25:26.355Z,14.84
2024-02-26T12:27:53.789Z,14.96
2024-02-26T12:30:21.330Z,15.19
2024-02-26T12:32:49.455Z,15.40
2024-02-26T12:35:17.196Z,15.35
2024-02-26T12:37:44.817Z,15.26
2024-02-26T12:40:14.092Z,15.23
2024-02-26T12:42:42.124Z,15.27
2024-02-26T12:45:11.587Z,15.43
2024-02-26T12:47:39.709Z,15.56
2024-02-26T12:50:09.793Z,15.71
2024-02-26T12:52:39.287Z,15.60
2024-02-26T12:55:09.267Z,15.57
2024-02-26T12:57:38.269Z,15.73
2024-02-26T13:00:07.287Z,15.95
2024-02-26T13:02:35.355Z,16.06
2024-02-26T13:05:02.970Z,16.11
2024-02-26T13:07:30.461Z,16.14
2024-02-26T13:09:57.790Z,16.19
2024-02-26T13:12:25.372Z,16.28
2024-02-26T13:15:02.872Z,16.36
2024-02-26T13:17:33.734Z,16.31
2024-02-26T13:20:01.035Z,16.23
2024-02-26T13:22:28.157Z,16.28
2024-02-26T13:25:04.229Z,16.33
2024-02-26T13:27:31.302Z,16.37
2024-02-26T13:30:11.320Z,16.41
2024-02-26T13:32:41.423Z,16.46
2024-02-26T13:35:14.833Z,16.31
2024-02-26T13:37:42.972Z,16.19
2024-02-26T13:40:13.427Z,16.11
2024-02-26T13:42:41.048Z,15.94
2024-02-26T13:45:10.320Z,15.76
2024-02-26T13:47:37.575Z,15.67
2024-02-26T13:50:05.597Z,15.70
2024-02-26T13:52:34.147Z,15.65
2024-02-26T13:55:01.710Z,15.53
2024-02-26T13:57:29.158Z,15.37
2024-02-26T13:59:56.379Z,15.25
2024-02-26T14:02:23.346Z,15.18
2024-02-26T14:04:50.829Z,15.16
2024-02-26T14:07:19.058Z,15.13
2024-02-26T14:09:50.333Z,15.09
2024-02-26T14:12:20.915Z,15.05
2024-02-26T14:14:50.329Z,15.03
2024-02-26T14:17:17.601Z,15.06
2024-02-26T14:19:46.318Z,15.07
2024-02-26T14:22:14.609Z,15.05
2024-02-26T14:24:42.192Z,15.06
2024-02-26T14:27:10.186Z,15.01
2024-02-26T14:29:38.101Z,14.89
2024-02-26T14:32:06.737Z,14.84
2024-02-26T14:34:34.364Z,14.80
2024-02-26T14:37:02.251Z,14.82
2024-02-26T14:39:30.570Z,14.84
2024-02-26T14:41:58.643Z,14.85
2024-02-26T14:44:26.032Z,14.83
2024-02-26T14:46:53.191Z,14.79
2024-02-26T14:49:20.411Z,14.75
2024-02-26T14:51:47.828Z,14.69
2024-02-26T14:54:14.909Z,14.59
2024-02-26T14:56:42.247Z,14.51
2024-02-26T14:59:09.857Z,14.48
2024-02-26T15:01:36.982Z,14.41
2024-02-26T15:04:05.203Z,14.31
2024-02-26T15:06:32.844Z,14.25
2024-02-26T15:09:00.607Z,14.16
2024-02-26T15:11:28.137Z,14.09
2024-02-26T15:13:55.693Z,14.04
2024-02-26T15:16:23.566Z,14.00
2024-02-26T15:18:50.771Z,14.03
2024-02-26T15:21:17.954Z,13.98
2024-02-26T15:23:58.768Z,13.88
2024-02-26T15:26:32.154Z,13.74
2024-02-26T15:28:59.665Z,13.65
2024-02-26T15:31:26.814Z,13.62
2024-02-26T15:33:54.674Z,13.60
2024-02-26T15:36:21.740Z,13.56
2024-02-26T15:38:49.284Z,13.51
2024-02-26T15:41:18.288Z,13.45
2024-02-26T15:43:45.865Z,13.38
2024-02-26T15:46:13.832Z,13.28
2024-02-26T15:48:41.596Z,13.19
2024-02-26T15:51:08.736Z,13.10
2024-02-26T15:53:35.791Z,13.02
2024-02-26T15:56:03.263Z,12.93
2024-02-26T15:58:30.351Z,12.87
2024-02-26T16:01:03.846Z,12.81
2024-02-26T16:03:41.166Z,12.77
2024-02-26T16:06:11.486Z,12.71
2024-02-26T16:08:38.574Z,12.66
2024-02-26T16:11:05.856Z,12.61
2024-02-26T16:13:33.572Z,12.57
2024-02-26T16:16:06.917Z,12.54
2024-02-26T16:18:36.331Z,12.50
2024-02-26T16:21:03.793Z,12.46
2024-02-26T16:23:31.333Z,12.42
2024-02-26T16:25:58.942Z,12.39
2024-02-26T16:28:27.319Z,12.36
2024-02-26T16:30:55.253Z,12.34
2024-02-26T16:33:22.889Z,12.30
2024-02-26T16:35:50.161Z,12.29
2024-02-26T16:38:17.309Z,12.26
2024-02-26T16:40:45.323Z,12.24
2024-02-26T16:43:12.532Z,12.22
2024-02-26T16:45:39.548Z,12.21
2024-02-26T16:48:08.007Z,12.20
2024-02-26T16:50:35.423Z,12.18
2024-02-26T16:53:02.355Z,12.17
2024-02-26T16:55:29.500Z,12.16
2024-02-26T16:57:57.801Z,12.14
2024-02-26T17:00:25.753Z,12.12
2024-02-26T17:02:54.012Z,12.12
2024-02-26T17:05:22.207Z,12.11
2024-02-26T17:07:49.127Z,12.11
2024-02-26T17:10:18.008Z,12.10
2024-02-26T17:12:46.492Z,12.09
2024-02-26T17:15:14.548Z,12.07
2024-02-26T17:17:42.086Z,12.05
2024-02-26T17:20:11.387Z,12.04
2024-02-26T17:22:38.984Z,12.02
2024-02-26T17:25:07.214Z,12.00
2024-02-26T17:27:34.271Z,11.98
2024-02-26T17:30:01.512Z,11.97
2024-02-26T17:32:28.782Z,11.96
2024-02-26T17:34:56.099Z,11.94
2024-02-26T17:37:23.052Z,11.93
2024-02-26T17:39:50.592Z,11.91
2024-02-26T17:42:17.701Z,11.90
2024-02-26T17:44:45.157Z,11.86
2024-02-26T17:47:12.259Z,11.83
2024-02-26T17:49:41.039Z,11.80
2024-02-26T17:52:08.946Z,11.79
2024-02-26T17:54:36.416Z,11.76
2024-02-26T17:57:03.547Z,11.76
2024-02-26T17:59:32.916Z,11.76
2024-02-26T18:02:00.143Z,11.77
2024-02-26T18:04:27.869Z,11.75
2024-02-26T18:06:55.011Z,11.72
2024-02-26T18:09:22.203Z,11.70
2024-02-26T18:11:49.519Z,11.67
2024-02-26T18:14:17.048Z,11.66
2024-02-26T18:16:44.000Z,11.63
2024-02-26T18:19:11.172Z,11.61
2024-02-26T18:21:38.322Z,11.58
2024-02-26T18:24:06.559Z,11.53
2024-02-26T18:26:35.240Z,11.53
2024-02-26T18:29:02.208Z,11.51
2024-02-26T18:31:30.141Z,11.49
2024-02-26T18:33:57.481Z,11.47
2024-02-26T18:36:26.139Z,11.46
2024-02-26T18:38:53.655Z,11.45
2024-02-26T18:41:25.151Z,11.45
2024-02-26T18:43:53.494Z,11.45
2024-02-26T18:46:20.622Z,11.44
2024-02-26T18:48:49.687Z,11.46
2024-02-26T18:51:17.069Z,11.44
2024-02-26T18:53:44.214Z,11.46
2024-02-26T18:56:12.090Z,11.47
2024-02-26T18:58:39.310Z,11.48
2024-02-26T19:01:06.848Z,11.49
2024-02-26T19:03:34.517Z,11.48
2024-02-26T19:06:04.173Z,11.48
2024-02-26T19:08:31.258Z,11.47
2024-02-26T19:11:00.368Z,11.47
2024-02-26T19:13:27.476Z,11.45
2024-02-26T19:15:54.730Z,11.47
2024-02-26T19:18:22.129Z,11.44
2024-02-26T19:20:49.781Z,11.41
2024-02-26T19:23:17.473Z,11.39
2024-02-26T19:25:44.502Z,11.40
2024-02-26T19:28:11.734Z,11.40
2024-02-26T19:30:39.406Z,11.40
2024-02-26T19:33:07.376Z,11.39
2024-02-26T19:35:35.285Z,11.38
2024-02-26T19:38:02.642Z,11.34
2024-02-26T19:40:29.769Z,11.32
2024-02-26T19:42:56.926Z,11.30
2024-02-26T19:45:24.437Z,11.28
2024-02-26T19:47:51.798Z,11.27
2024-02-26T19:50:19.605Z,11.26
2024-02-26T19:52:46.838Z,11.25
2024-02-26T19:55:17.437Z,11.26
2024-02-26T19:57:44.749Z,11.24
2024-02-26T20:00:13.980Z,11.22
2024-02-26T20:02:41.517Z,11.21
2024-02-26T20:05:09.976Z,11.18
2024-02-26T20:07:37.045Z,11.16
2024-02-26T20:10:04.654Z,11.17
2024-02-26T20:12:31.750Z,11.16
2024-02-26T20:14:58.866Z,11.17
2024-02-26T20:17:26.188Z,11.18
2024-02-26T20:19:58.595Z,11.20
2024-02-26T20:22:25.994Z,11.21
2024-02-26T20:24:53.288Z,11.22
2024-02-26T20:27:20.383Z,11.23
2024-02-26T20:29:47.445Z,11.25
2024-02-26T20:32:14.415Z,11.27
2024-02-26T20:34:41.814Z,11.27
2024-02-26T20:37:08.943Z,11.29
2024-02-26T20:39:36.529Z,11.30
2024-02-26T20:42:04.077Z,11.31
2024-02-26T20:44:31.035Z,11.31
2024-02-26T20:47:00.203Z,11.31
2024-02-26T20:49:27.257Z,11.30
2024-02-26T20:51:54.205Z,11.30
2024-02-26T20:54:21.315Z,11.29
2024-02-26T20:56:48.543Z,11.29
2024-02-26T20:59:17.173Z,11.30
2024-02-26T21:01:44.304Z,11.30
2024-02-26T21:04:11.650Z,11.31
2024-02-26T21:06:39.133Z,11.30
2024-02-26T21:09:07.305Z,11.31
2024-02-26T21:11:35.860Z,11.30
2024-02-26T21:14:02.796Z,11.30
2024-02-26T21:16:29.834Z,11.30
2024-02-26T21:19:00.113Z,11.32
2024-02-26T21:21:29.712Z,11.33
2024-02-26T21:23:57.220Z,11.35
2024-02-26T21:26:25.043Z,11.33
2024-02-26T21:28:52.229Z,11.30
2024-02-26T21:31:19.163Z,11.26
2024-02-26T21:33:46.439Z,11.21
2024-02-26T21:36:13.852Z,11.17
2024-02-26T21:38:46.501Z,11.13
2024-02-26T21:41:18.542Z,11.10
2024-02-26T21:43:45.519Z,11.09
2024-02-26T21:46:13.058Z,11.07
2024-02-26T21:48:40.758Z,11.05
2024-02-26T21:51:08.740Z,11.03
2024-02-26T21:53:35.968Z,11.02
2024-02-26T21:56:05.090Z,11.01
2024-02-26T21:58:32.181Z,11.00
2024-02-26T22:00:59.183Z,10.99
2024-02-26T22:03:26.360Z,10.98
2024-02-26T22:05:55.406Z,10.97
2024-02-26T22:08:22.385Z,10.95
2024-02-26T22:10:51.515Z,10.95
2024-02-26T22:13:18.512Z,10.92
2024-02-26T22:15:46.431Z,10.93
2024-02-26T22:18:14.106Z,10.92
2024-02-26T22:20:42.291Z,10.91
2024-02-26T22:23:09.315Z,10.92
2024-02-26T22:25:36.274Z,10.92
2024-02-26T22:28:03.866Z,10.95
2024-02-26T22:30:30.843Z,10.96
2024-02-26T22:32:58.002Z,10.97
2024-02-26T22:35:25.648Z,10.96
2024-02-26T22:37:53.122Z,11.00
2024-02-26T22:40:20.466Z,11.01
2024-02-26T22:42:47.851Z,11.03
2024-02-26T22:45:16.128Z,11.04
2024-02-26T22:47:43.271Z,11.05
2024-02-26T22:50:11.850Z,11.06
2024-02-26T22:52:39.288Z,11.05
2024-02-26T22:55:07.510Z,11.06
2024-02-26T22:57:35.175Z,11.06
2024-02-26T23:00:21.029Z,11.05
2024-02-26T23:02:48.035Z,11.06
2024-02-26T23:05:17.116Z,11.05
2024-02-26T23:07:45.592Z,11.05
2024-02-26T23:10:14.814Z,11.04
2024-02-26T23:12:41.798Z,11.02
2024-02-26T23:15:11.970Z,11.01
2024-02-26T23:17:39.173Z,11.00
2024-02-26T23:20:09.740Z,10.99
2024-02-26T23:22:37.412Z,10.96
2024-02-26T23:25:05.438Z,10.93
2024-02-26T23:27:33.157Z,10.89
2024-02-26T23:30:00.144Z,10.87
2024-02-26T23:32:27.298Z,10.83
2024-02-26T23:34:54.864Z,10.79
2024-02-26T23:37:22.199Z,10.76
2024-02-26T23:39:49.404Z,10.72
2024-02-26T23:42:16.614Z,10.68
2024-02-26T23:44:45.003Z,10.65
2024-02-26T23:47:12.352Z,10.61
2024-02-26T23:49:39.268Z,10.58
2024-02-26T23:52:06.847Z,10.56
2024-02-26T23:54:34.200Z,10.53
2024-02-26T23:57:01.206Z,10.51
2024-02-26T23:59:28.093Z,10.49
